sensor_id;sensor_type;location;lat;lon;timestamp;P1;durP1;ratioP1;P2;durP2;ratioP2
31694;SDS011;18289;51.330;4.946;2023-02-26T00:01:02;8.73;;;4.05;;
31694;SDS011;18289;51.330;4.946;2023-02-26T00:03:35;7.78;;;4.50;;
31694;SDS011;18289;51.330;4.946;2023-02-26T00:06:01;12.80;;;4.43;;
31694;SDS011;18289;51.330;4.946;2023-02-26T00:08:27;13.82;;;4.60;;
31694;SDS011;18289;51.330;4.946;2023-02-26T00:10:53;7.80;;;4.18;;
31694;SDS011;18289;51.330;4.946;2023-02-26T00:13:19;7.88;;;4.00;;
31694;SDS011;18289;51.330;4.946;2023-02-26T00:15:46;8.43;;;4.72;;
31694;SDS011;18289;51.330;4.946;2023-02-26T00:18:13;9.60;;;4.20;;
31694;SDS011;18289;51.330;4.946;2023-02-26T00:20:40;6.68;;;4.15;;
31694;SDS011;18289;51.330;4.946;2023-02-26T00:23:12;11.15;;;4.57;;
31694;SDS011;18289;51.330;4.946;2023-02-26T00:25:39;11.30;;;4.85;;
31694;SDS011;18289;51.330;4.946;2023-02-26T00:28:05;9.93;;;4.00;;
31694;SDS011;18289;51.330;4.946;2023-02-26T00:30:32;8.88;;;4.38;;
31694;SDS011;18289;51.330;4.946;2023-02-26T00:32:58;10.85;;;4.05;;
31694;SDS011;18289;51.330;4.946;2023-02-26T00:35:24;11.15;;;4.50;;
31694;SDS011;18289;51.330;4.946;2023-02-26T00:38:03;6.88;;;4.38;;
31694;SDS011;18289;51.330;4.946;2023-02-26T00:45:55;13.57;;;4.55;;
31694;SDS011;18289;51.330;4.946;2023-02-26T00:51:26;10.35;;;4.80;;
31694;SDS011;18289;51.330;4.946;2023-02-26T00:56:49;8.63;;;4.45;;
31694;SDS011;18289;51.330;4.946;2023-02-26T00:59:16;9.55;;;5.13;;
31694;SDS011;18289;51.330;4.946;2023-02-26T01:01:42;8.95;;;3.88;;
31694;SDS011;18289;51.330;4.946;2023-02-26T01:04:08;5.75;;;4.15;;
31694;SDS011;18289;51.330;4.946;2023-02-26T01:06:35;7.40;;;4.50;;
31694;SDS011;18289;51.330;4.946;2023-02-26T01:11:37;11.90;;;5.55;;
31694;SDS011;18289;51.330;4.946;2023-02-26T01:14:03;9.82;;;4.60;;
31694;SDS011;18289;51.330;4.946;2023-02-26T01:16:32;12.32;;;4.93;;
31694;SDS011;18289;51.330;4.946;2023-02-26T01:19:04;8.77;;;4.60;;
31694;SDS011;18289;51.330;4.946;2023-02-26T01:21:42;11.95;;;4.70;;
31694;SDS011;18289;51.330;4.946;2023-02-26T01:24:15;10.18;;;3.88;;
31694;SDS011;18289;51.330;4.946;2023-02-26T01:26:43;13.60;;;4.90;;
31694;SDS011;18289;51.330;4.946;2023-02-26T01:29:11;7.95;;;4.03;;
31694;SDS011;18289;51.330;4.946;2023-02-26T01:31:42;7.28;;;3.72;;
31694;SDS011;18289;51.330;4.946;2023-02-26T01:43:22;7.85;;;3.90;;
31694;SDS011;18289;51.330;4.946;2023-02-26T01:46:02;7.15;;;3.88;;
31694;SDS011;18289;51.330;4.946;2023-02-26T01:48:47;9.60;;;3.88;;
31694;SDS011;18289;51.330;4.946;2023-02-26T01:51:18;12.18;;;4.28;;
31694;SDS011;18289;51.330;4.946;2023-02-26T01:54:12;7.43;;;3.70;;
31694;SDS011;18289;51.330;4.946;2023-02-26T01:56:38;6.40;;;3.80;;
31694;SDS011;18289;51.330;4.946;2023-02-26T01:59:06;9.43;;;4.22;;
31694;SDS011;18289;51.330;4.946;2023-02-26T02:01:37;9.85;;;4.10;;
31694;SDS011;18289;51.330;4.946;2023-02-26T02:04:04;12.73;;;3.95;;
31694;SDS011;18289;51.330;4.946;2023-02-26T02:06:32;8.80;;;4.20;;
31694;SDS011;18289;51.330;4.946;2023-02-26T02:08:58;11.82;;;4.70;;
31694;SDS011;18289;51.330;4.946;2023-02-26T02:11:23;9.00;;;4.22;;
31694;SDS011;18289;51.330;4.946;2023-02-26T02:28:01;6.00;;;3.72;;
31694;SDS011;18289;51.330;4.946;2023-02-26T02:33:27;11.40;;;3.78;;
31694;SDS011;18289;51.330;4.946;2023-02-26T02:36:05;6.63;;;3.38;;
31694;SDS011;18289;51.330;4.946;2023-02-26T02:38:37;7.28;;;3.70;;
31694;SDS011;18289;51.330;4.946;2023-02-26T02:44:03;11.13;;;3.65;;
31694;SDS011;18289;51.330;4.946;2023-02-26T02:46:35;9.32;;;3.60;;
31694;SDS011;18289;51.330;4.946;2023-02-26T02:49:05;6.05;;;3.33;;
31694;SDS011;18289;51.330;4.946;2023-02-26T02:51:38;8.27;;;3.58;;
31694;SDS011;18289;51.330;4.946;2023-02-26T02:54:28;3.67;;;2.78;;
31694;SDS011;18289;51.330;4.946;2023-02-26T02:57:08;8.93;;;3.55;;
31694;SDS011;18289;51.330;4.946;2023-02-26T02:59:43;6.13;;;3.28;;
31694;SDS011;18289;51.330;4.946;2023-02-26T03:04:43;10.25;;;3.17;;
31694;SDS011;18289;51.330;4.946;2023-02-26T03:07:09;10.20;;;4.85;;
31694;SDS011;18289;51.330;4.946;2023-02-26T03:09:35;10.25;;;3.47;;
31694;SDS011;18289;51.330;4.946;2023-02-26T03:12:01;6.85;;;3.33;;
31694;SDS011;18289;51.330;4.946;2023-02-26T03:14:27;5.28;;;2.42;;
31694;SDS011;18289;51.330;4.946;2023-02-26T03:17:38;7.68;;;2.78;;
31694;SDS011;18289;51.330;4.946;2023-02-26T03:19:52;5.28;;;2.70;;
31694;SDS011;18289;51.330;4.946;2023-02-26T03:28:18;7.25;;;3.13;;
31694;SDS011;18289;51.330;4.946;2023-02-26T03:31:17;5.78;;;2.67;;
31694;SDS011;18289;51.330;4.946;2023-02-26T03:41:46;7.28;;;2.92;;
31694;SDS011;18289;51.330;4.946;2023-02-26T03:44:21;5.82;;;2.58;;
31694;SDS011;18289;51.330;4.946;2023-02-26T03:46:59;8.13;;;2.75;;
31694;SDS011;18289;51.330;4.946;2023-02-26T03:49:29;7.40;;;2.70;;
31694;SDS011;18289;51.330;4.946;2023-02-26T03:51:59;9.15;;;2.60;;
31694;SDS011;18289;51.330;4.946;2023-02-26T03:54:30;3.58;;;2.10;;
31694;SDS011;18289;51.330;4.946;2023-02-26T03:57:03;5.82;;;2.42;;
31694;SDS011;18289;51.330;4.946;2023-02-26T03:59:29;5.95;;;2.40;;
31694;SDS011;18289;51.330;4.946;2023-02-26T04:01:58;6.18;;;2.53;;
31694;SDS011;18289;51.330;4.946;2023-02-26T04:04:34;3.80;;;2.15;;
31694;SDS011;18289;51.330;4.946;2023-02-26T04:07:22;4.60;;;1.90;;
31694;SDS011;18289;51.330;4.946;2023-02-26T04:09:48;4.97;;;2.45;;
31694;SDS011;18289;51.330;4.946;2023-02-26T04:12:19;3.13;;;2.10;;
31694;SDS011;18289;51.330;4.946;2023-02-26T04:14:46;4.38;;;2.25;;
31694;SDS011;18289;51.330;4.946;2023-02-26T04:17:12;4.30;;;2.10;;
31694;SDS011;18289;51.330;4.946;2023-02-26T04:19:38;8.60;;;2.35;;
31694;SDS011;18289;51.330;4.946;2023-02-26T04:22:03;8.30;;;2.20;;
31694;SDS011;18289;51.330;4.946;2023-02-26T04:24:29;3.72;;;1.95;;
31694;SDS011;18289;51.330;4.946;2023-02-26T04:26:55;8.60;;;2.85;;
31694;SDS011;18289;51.330;4.946;2023-02-26T04:29:20;9.88;;;2.08;;
31694;SDS011;18289;51.330;4.946;2023-02-26T04:31:46;6.72;;;2.35;;
31694;SDS011;18289;51.330;4.946;2023-02-26T04:34:12;5.20;;;1.90;;
31694;SDS011;18289;51.330;4.946;2023-02-26T04:36:38;5.07;;;2.10;;
31694;SDS011;18289;51.330;4.946;2023-02-26T04:39:04;9.25;;;2.08;;
31694;SDS011;18289;51.330;4.946;2023-02-26T04:41:29;5.60;;;1.98;;
31694;SDS011;18289;51.330;4.946;2023-02-26T04:43:55;10.73;;;2.55;;
31694;SDS011;18289;51.330;4.946;2023-02-26T04:46:21;10.05;;;2.03;;
31694;SDS011;18289;51.330;4.946;2023-02-26T04:48:46;5.68;;;1.90;;
31694;SDS011;18289;51.330;4.946;2023-02-26T04:51:12;6.20;;;2.10;;
31694;SDS011;18289;51.330;4.946;2023-02-26T04:53:38;5.28;;;2.22;;
31694;SDS011;18289;51.330;4.946;2023-02-26T04:56:04;5.93;;;2.00;;
31694;SDS011;18289;51.330;4.946;2023-02-26T04:58:30;6.70;;;1.98;;
31694;SDS011;18289;51.330;4.946;2023-02-26T05:00:56;4.88;;;1.95;;
31694;SDS011;18289;51.330;4.946;2023-02-26T05:03:22;4.63;;;1.70;;
31694;SDS011;18289;51.330;4.946;2023-02-26T05:05:47;3.08;;;2.00;;
31694;SDS011;18289;51.330;4.946;2023-02-26T05:08:13;2.30;;;2.10;;
31694;SDS011;18289;51.330;4.946;2023-02-26T05:10:39;4.95;;;2.10;;
31694;SDS011;18289;51.330;4.946;2023-02-26T05:13:05;3.35;;;1.83;;
31694;SDS011;18289;51.330;4.946;2023-02-26T05:15:31;5.13;;;1.88;;
31694;SDS011;18289;51.330;4.946;2023-02-26T05:17:57;3.85;;;1.85;;
31694;SDS011;18289;51.330;4.946;2023-02-26T05:20:22;5.43;;;2.00;;
31694;SDS011;18289;51.330;4.946;2023-02-26T05:22:48;8.30;;;2.08;;
31694;SDS011;18289;51.330;4.946;2023-02-26T05:25:14;3.75;;;2.22;;
31694;SDS011;18289;51.330;4.946;2023-02-26T05:27:40;4.75;;;1.90;;
31694;SDS011;18289;51.330;4.946;2023-02-26T05:30:07;8.40;;;1.73;;
31694;SDS011;18289;51.330;4.946;2023-02-26T05:32:34;6.53;;;1.77;;
31694;SDS011;18289;51.330;4.946;2023-02-26T05:34:59;6.90;;;2.17;;
31694;SDS011;18289;51.330;4.946;2023-02-26T05:37:26;6.80;;;1.98;;
31694;SDS011;18289;51.330;4.946;2023-02-26T05:39:52;4.95;;;1.98;;
31694;SDS011;18289;51.330;4.946;2023-02-26T05:42:17;3.90;;;1.65;;
31694;SDS011;18289;51.330;4.946;2023-02-26T05:44:43;4.72;;;1.98;;
31694;SDS011;18289;51.330;4.946;2023-02-26T05:47:09;6.65;;;1.88;;
31694;SDS011;18289;51.330;4.946;2023-02-26T05:49:34;5.97;;;1.95;;
31694;SDS011;18289;51.330;4.946;2023-02-26T05:52:01;10.13;;;2.40;;
31694;SDS011;18289;51.330;4.946;2023-02-26T05:54:27;4.45;;;2.08;;
31694;SDS011;18289;51.330;4.946;2023-02-26T05:56:52;6.97;;;1.85;;
31694;SDS011;18289;51.330;4.946;2023-02-26T05:59:18;2.20;;;1.92;;
31694;SDS011;18289;51.330;4.946;2023-02-26T06:01:44;4.20;;;1.80;;
31694;SDS011;18289;51.330;4.946;2023-02-26T06:04:09;7.18;;;2.03;;
31694;SDS011;18289;51.330;4.946;2023-02-26T06:06:35;2.75;;;1.60;;
31694;SDS011;18289;51.330;4.946;2023-02-26T06:09:01;7.28;;;2.15;;
31694;SDS011;18289;51.330;4.946;2023-02-26T06:11:27;3.72;;;1.67;;
31694;SDS011;18289;51.330;4.946;2023-02-26T06:13:53;4.18;;;1.65;;
31694;SDS011;18289;51.330;4.946;2023-02-26T06:16:19;6.60;;;2.00;;
31694;SDS011;18289;51.330;4.946;2023-02-26T06:18:45;4.65;;;1.98;;
31694;SDS011;18289;51.330;4.946;2023-02-26T06:21:12;4.88;;;1.65;;
31694;SDS011;18289;51.330;4.946;2023-02-26T06:23:38;5.07;;;1.92;;
31694;SDS011;18289;51.330;4.946;2023-02-26T06:26:04;5.57;;;2.03;;
31694;SDS011;18289;51.330;4.946;2023-02-26T06:28:30;7.18;;;2.10;;
31694;SDS011;18289;51.330;4.946;2023-02-26T06:30:56;5.28;;;1.63;;
31694;SDS011;18289;51.330;4.946;2023-02-26T06:33:22;14.23;;;3.10;;
31694;SDS011;18289;51.330;4.946;2023-02-26T06:35:49;7.13;;;2.50;;
31694;SDS011;18289;51.330;4.946;2023-02-26T06:38:15;4.25;;;2.15;;
31694;SDS011;18289;51.330;4.946;2023-02-26T06:40:41;5.40;;;2.15;;
31694;SDS011;18289;51.330;4.946;2023-02-26T06:43:06;9.65;;;2.10;;
31694;SDS011;18289;51.330;4.946;2023-02-26T06:45:32;6.15;;;1.90;;
31694;SDS011;18289;51.330;4.946;2023-02-26T06:47:58;5.03;;;1.80;;
31694;SDS011;18289;51.330;4.946;2023-02-26T06:50:24;4.93;;;1.90;;
31694;SDS011;18289;51.330;4.946;2023-02-26T06:52:50;5.13;;;1.90;;
31694;SDS011;18289;51.330;4.946;2023-02-26T06:55:15;2.78;;;1.80;;
31694;SDS011;18289;51.330;4.946;2023-02-26T06:57:41;4.88;;;1.70;;
31694;SDS011;18289;51.330;4.946;2023-02-26T07:00:08;5.32;;;1.80;;
31694;SDS011;18289;51.330;4.946;2023-02-26T07:02:34;5.43;;;2.22;;
31694;SDS011;18289;51.330;4.946;2023-02-26T07:05:00;7.00;;;2.40;;
31694;SDS011;18289;51.330;4.946;2023-02-26T07:07:26;4.05;;;2.00;;
31694;SDS011;18289;51.330;4.946;2023-02-26T07:09:52;5.80;;;2.10;;
31694;SDS011;18289;51.330;4.946;2023-02-26T07:12:17;6.80;;;2.35;;
31694;SDS011;18289;51.330;4.946;2023-02-26T07:14:43;3.95;;;2.35;;
31694;SDS011;18289;51.330;4.946;2023-02-26T07:17:10;4.85;;;2.80;;
31694;SDS011;18289;51.330;4.946;2023-02-26T07:19:44;6.30;;;2.58;;
31694;SDS011;18289;51.330;4.946;2023-02-26T07:22:12;5.18;;;2.33;;
31694;SDS011;18289;51.330;4.946;2023-02-26T07:24:39;9.32;;;4.72;;
31694;SDS011;18289;51.330;4.946;2023-02-26T07:27:05;7.75;;;3.65;;
31694;SDS011;18289;51.330;4.946;2023-02-26T07:29:30;6.95;;;3.83;;
31694;SDS011;18289;51.330;4.946;2023-02-26T07:31:56;3.08;;;2.17;;
31694;SDS011;18289;51.330;4.946;2023-02-26T07:34:22;3.08;;;2.13;;
31694;SDS011;18289;51.330;4.946;2023-02-26T07:36:47;5.15;;;2.10;;
31694;SDS011;18289;51.330;4.946;2023-02-26T07:39:13;2.63;;;1.70;;
31694;SDS011;18289;51.330;4.946;2023-02-26T07:41:39;7.20;;;1.60;;
31694;SDS011;18289;51.330;4.946;2023-02-26T07:44:05;3.50;;;1.85;;
31694;SDS011;18289;51.330;4.946;2023-02-26T07:46:31;6.28;;;1.70;;
31694;SDS011;18289;51.330;4.946;2023-02-26T07:48:56;2.70;;;2.00;;
31694;SDS011;18289;51.330;4.946;2023-02-26T07:51:22;5.47;;;2.60;;
31694;SDS011;18289;51.330;4.946;2023-02-26T07:53:48;4.97;;;1.90;;
31694;SDS011;18289;51.330;4.946;2023-02-26T07:56:14;4.95;;;2.05;;
31694;SDS011;18289;51.330;4.946;2023-02-26T07:58:39;5.88;;;1.90;;
31694;SDS011;18289;51.330;4.946;2023-02-26T08:01:05;4.40;;;1.63;;
31694;SDS011;18289;51.330;4.946;2023-02-26T08:03:31;5.03;;;1.70;;
31694;SDS011;18289;51.330;4.946;2023-02-26T08:05:57;3.35;;;1.92;;
31694;SDS011;18289;51.330;4.946;2023-02-26T08:08:24;3.90;;;1.77;;
31694;SDS011;18289;51.330;4.946;2023-02-26T08:10:50;4.18;;;1.98;;
31694;SDS011;18289;51.330;4.946;2023-02-26T08:13:16;2.90;;;1.70;;
31694;SDS011;18289;51.330;4.946;2023-02-26T08:15:43;2.58;;;1.42;;
31694;SDS011;18289;51.330;4.946;2023-02-26T08:18:09;4.35;;;1.92;;
31694;SDS011;18289;51.330;4.946;2023-02-26T08:20:35;3.22;;;1.42;;
31694;SDS011;18289;51.330;4.946;2023-02-26T08:23:01;2.55;;;1.95;;
31694;SDS011;18289;51.330;4.946;2023-02-26T08:25:27;4.82;;;1.92;;
31694;SDS011;18289;51.330;4.946;2023-02-26T08:27:52;3.30;;;1.63;;
31694;SDS011;18289;51.330;4.946;2023-02-26T08:30:18;4.05;;;1.70;;
31694;SDS011;18289;51.330;4.946;2023-02-26T08:32:44;2.85;;;1.60;;
31694;SDS011;18289;51.330;4.946;2023-02-26T08:35:10;5.07;;;1.40;;
31694;SDS011;18289;51.330;4.946;2023-02-26T08:37:36;8.52;;;2.53;;
31694;SDS011;18289;51.330;4.946;2023-02-26T08:40:04;2.58;;;1.35;;
31694;SDS011;18289;51.330;4.946;2023-02-26T08:42:30;3.00;;;1.27;;
31694;SDS011;18289;51.330;4.946;2023-02-26T08:44:56;2.85;;;1.50;;
31694;SDS011;18289;51.330;4.946;2023-02-26T08:47:22;3.92;;;1.30;;
31694;SDS011;18289;51.330;4.946;2023-02-26T08:49:47;3.38;;;1.58;;
31694;SDS011;18289;51.330;4.946;2023-02-26T08:52:13;3.67;;;1.70;;
31694;SDS011;18289;51.330;4.946;2023-02-26T08:54:39;3.65;;;1.50;;
31694;SDS011;18289;51.330;4.946;2023-02-26T08:57:05;4.07;;;1.30;;
31694;SDS011;18289;51.330;4.946;2023-02-26T08:59:31;3.00;;;1.73;;
31694;SDS011;18289;51.330;4.946;2023-02-26T09:01:56;5.82;;;2.60;;
31694;SDS011;18289;51.330;4.946;2023-02-26T09:04:22;5.50;;;2.22;;
31694;SDS011;18289;51.330;4.946;2023-02-26T09:06:48;5.65;;;2.22;;
31694;SDS011;18289;51.330;4.946;2023-02-26T09:09:13;4.63;;;2.10;;
31694;SDS011;18289;51.330;4.946;2023-02-26T09:11:39;2.92;;;1.60;;
31694;SDS011;18289;51.330;4.946;2023-02-26T09:14:05;3.28;;;1.63;;
31694;SDS011;18289;51.330;4.946;2023-02-26T09:16:31;2.78;;;1.95;;
31694;SDS011;18289;51.330;4.946;2023-02-26T09:21:26;4.25;;;1.80;;
31694;SDS011;18289;51.330;4.946;2023-02-26T09:23:52;4.45;;;1.60;;
31694;SDS011;18289;51.330;4.946;2023-02-26T09:26:18;2.28;;;1.55;;
31694;SDS011;18289;51.330;4.946;2023-02-26T09:28:43;3.72;;;1.92;;
31694;SDS011;18289;51.330;4.946;2023-02-26T09:31:09;3.88;;;2.10;;
31694;SDS011;18289;51.330;4.946;2023-02-26T09:33:35;4.35;;;1.95;;
31694;SDS011;18289;51.330;4.946;2023-02-26T09:36:01;4.78;;;2.10;;
31694;SDS011;18289;51.330;4.946;2023-02-26T09:38:26;3.85;;;1.77;;
31694;SDS011;18289;51.330;4.946;2023-02-26T09:40:57;2.63;;;1.70;;
31694;SDS011;18289;51.330;4.946;2023-02-26T09:49:10;3.42;;;1.90;;
31694;SDS011;18289;51.330;4.946;2023-02-26T09:51:51;4.70;;;1.70;;
31694;SDS011;18289;51.330;4.946;2023-02-26T09:54:23;4.88;;;1.70;;
31694;SDS011;18289;51.330;4.946;2023-02-26T09:56:52;2.25;;;1.55;;
31694;SDS011;18289;51.330;4.946;2023-02-26T09:59:21;3.83;;;1.50;;
31694;SDS011;18289;51.330;4.946;2023-02-26T10:04:50;5.32;;;1.63;;
31694;SDS011;18289;51.330;4.946;2023-02-26T10:10:50;2.80;;;1.50;;
31694;SDS011;18289;51.330;4.946;2023-02-26T10:13:39;3.65;;;1.45;;
31694;SDS011;18289;51.330;4.946;2023-02-26T10:16:10;1.70;;;1.30;;
31694;SDS011;18289;51.330;4.946;2023-02-26T10:18:42;3.42;;;1.45;;
31694;SDS011;18289;51.330;4.946;2023-02-26T10:21:16;3.58;;;1.98;;
31694;SDS011;18289;51.330;4.946;2023-02-26T10:23:51;7.35;;;2.05;;
31694;SDS011;18289;51.330;4.946;2023-02-26T10:26:31;3.17;;;1.70;;
31694;SDS011;18289;51.330;4.946;2023-02-26T10:31:58;3.00;;;1.40;;
31694;SDS011;18289;51.330;4.946;2023-02-26T10:34:52;3.53;;;1.60;;
31694;SDS011;18289;51.330;4.946;2023-02-26T10:37:55;3.97;;;1.73;;
31694;SDS011;18289;51.330;4.946;2023-02-26T10:40:31;3.08;;;1.52;;
31694;SDS011;18289;51.330;4.946;2023-02-26T10:43:17;2.88;;;1.48;;
31694;SDS011;18289;51.330;4.946;2023-02-26T10:51:32;2.97;;;1.80;;
31694;SDS011;18289;51.330;4.946;2023-02-26T10:54:05;2.17;;;1.52;;
31694;SDS011;18289;51.330;4.946;2023-02-26T10:56:47;6.55;;;1.85;;
31694;SDS011;18289;51.330;4.946;2023-02-26T10:59:13;2.20;;;1.85;;
31694;SDS011;18289;51.330;4.946;2023-02-26T11:01:42;2.53;;;1.67;;
31694;SDS011;18289;51.330;4.946;2023-02-26T11:04:10;2.10;;;1.90;;
31694;SDS011;18289;51.330;4.946;2023-02-26T11:09:38;1.95;;;1.30;;
31694;SDS011;18289;51.330;4.946;2023-02-26T11:14:35;2.75;;;1.52;;
31694;SDS011;18289;51.330;4.946;2023-02-26T11:17:11;2.15;;;1.48;;
31694;SDS011;18289;51.330;4.946;2023-02-26T11:19:51;2.05;;;1.50;;
31694;SDS011;18289;51.330;4.946;2023-02-26T11:22:21;1.65;;;1.20;;
31694;SDS011;18289;51.330;4.946;2023-02-26T11:24:49;2.00;;;1.60;;
31694;SDS011;18289;51.330;4.946;2023-02-26T11:27:35;1.92;;;1.40;;
31694;SDS011;18289;51.330;4.946;2023-02-26T11:30:05;2.15;;;1.40;;
31694;SDS011;18289;51.330;4.946;2023-02-26T11:32:52;1.95;;;1.50;;
31694;SDS011;18289;51.330;4.946;2023-02-26T11:35:22;1.83;;;1.50;;
31694;SDS011;18289;51.330;4.946;2023-02-26T11:40:23;2.78;;;1.80;;
31694;SDS011;18289;51.330;4.946;2023-02-26T11:42:52;1.80;;;1.70;;
31694;SDS011;18289;51.330;4.946;2023-02-26T11:45:22;3.92;;;1.65;;
31694;SDS011;18289;51.330;4.946;2023-02-26T11:47:57;1.80;;;1.38;;
31694;SDS011;18289;51.330;4.946;2023-02-26T11:50:28;1.40;;;1.30;;
31694;SDS011;18289;51.330;4.946;2023-02-26T11:52:56;2.50;;;1.52;;
31694;SDS011;18289;51.330;4.946;2023-02-26T11:55:33;2.20;;;1.60;;
31694;SDS011;18289;51.330;4.946;2023-02-26T11:58:09;2.33;;;1.55;;
31694;SDS011;18289;51.330;4.946;2023-02-26T12:00:42;2.20;;;1.40;;
31694;SDS011;18289;51.330;4.946;2023-02-26T12:03:14;1.73;;;1.30;;
31694;SDS011;18289;51.330;4.946;2023-02-26T12:05:43;2.30;;;1.20;;
31694;SDS011;18289;51.330;4.946;2023-02-26T12:08:26;2.05;;;1.20;;
31694;SDS011;18289;51.330;4.946;2023-02-26T12:19:47;1.92;;;1.83;;
31694;SDS011;18289;51.330;4.946;2023-02-26T12:22:48;2.88;;;1.40;;
31694;SDS011;18289;51.330;4.946;2023-02-26T12:42:00;1.63;;;1.33;;
31694;SDS011;18289;51.330;4.946;2023-02-26T12:48:03;1.17;;;1.17;;
31694;SDS011;18289;51.330;4.946;2023-02-26T12:50:40;1.50;;;1.20;;
31694;SDS011;18289;51.330;4.946;2023-02-26T12:56:31;1.70;;;1.40;;
31694;SDS011;18289;51.330;4.946;2023-02-26T13:07:41;1.50;;;1.40;;
31694;SDS011;18289;51.330;4.946;2023-02-26T13:21:16;1.30;;;1.20;;
31694;SDS011;18289;51.330;4.946;2023-02-26T13:26:24;4.47;;;2.50;;
31694;SDS011;18289;51.330;4.946;2023-02-26T13:28:53;4.78;;;2.80;;
31694;SDS011;18289;51.330;4.946;2023-02-26T13:34:01;3.72;;;2.30;;
31694;SDS011;18289;51.330;4.946;2023-02-26T13:36:35;2.67;;;2.47;;
31694;SDS011;18289;51.330;4.946;2023-02-26T13:41:47;5.32;;;3.17;;
31694;SDS011;18289;51.330;4.946;2023-02-26T13:53:04;2.50;;;1.45;;
31694;SDS011;18289;51.330;4.946;2023-02-26T13:55:52;3.20;;;2.17;;
31694;SDS011;18289;51.330;4.946;2023-02-26T14:06:43;2.88;;;1.90;;
31694;SDS011;18289;51.330;4.946;2023-02-26T14:17:37;4.50;;;1.50;;
31694;SDS011;18289;51.330;4.946;2023-02-26T14:20:17;3.30;;;1.40;;
31694;SDS011;18289;51.330;4.946;2023-02-26T14:22:49;2.47;;;1.45;;
31694;SDS011;18289;51.330;4.946;2023-02-26T14:25:40;2.55;;;1.30;;
31694;SDS011;18289;51.330;4.946;2023-02-26T14:31:03;4.00;;;1.80;;
31694;SDS011;18289;51.330;4.946;2023-02-26T14:39:07;4.63;;;2.80;;
31694;SDS011;18289;51.330;4.946;2023-02-26T14:41:40;3.63;;;2.60;;
31694;SDS011;18289;51.330;4.946;2023-02-26T14:44:20;4.15;;;2.60;;
31694;SDS011;18289;51.330;4.946;2023-02-26T14:46:50;2.35;;;2.15;;
31694;SDS011;18289;51.330;4.946;2023-02-26T14:49:17;1.80;;;1.70;;
31694;SDS011;18289;51.330;4.946;2023-02-26T14:59:56;1.67;;;1.58;;
31694;SDS011;18289;51.330;4.946;2023-02-26T15:05:28;2.28;;;1.42;;
31694;SDS011;18289;51.330;4.946;2023-02-26T15:08:17;2.10;;;1.77;;
31694;SDS011;18289;51.330;4.946;2023-02-26T15:21:58;2.03;;;1.60;;
31694;SDS011;18289;51.330;4.946;2023-02-26T15:24:34;2.20;;;1.80;;
31694;SDS011;18289;51.330;4.946;2023-02-26T15:27:00;1.50;;;1.38;;
31694;SDS011;18289;51.330;4.946;2023-02-26T15:29:31;2.40;;;1.60;;
31694;SDS011;18289;51.330;4.946;2023-02-26T15:34:53;1.95;;;1.30;;
31694;SDS011;18289;51.330;4.946;2023-02-26T15:37:28;1.52;;;1.33;;
31694;SDS011;18289;51.330;4.946;2023-02-26T15:39:59;2.10;;;1.83;;
31694;SDS011;18289;51.330;4.946;2023-02-26T15:42:30;1.95;;;1.52;;
31694;SDS011;18289;51.330;4.946;2023-02-26T15:45:02;2.92;;;1.80;;
31694;SDS011;18289;51.330;4.946;2023-02-26T15:47:31;2.13;;;1.90;;
31694;SDS011;18289;51.330;4.946;2023-02-26T15:49:57;1.80;;;1.33;;
31694;SDS011;18289;51.330;4.946;2023-02-26T15:52:24;1.98;;;1.52;;
31694;SDS011;18289;51.330;4.946;2023-02-26T15:54:53;1.73;;;1.42;;
31694;SDS011;18289;51.330;4.946;2023-02-26T15:57:22;3.42;;;1.48;;
31694;SDS011;18289;51.330;4.946;2023-02-26T15:59:50;1.67;;;1.30;;
31694;SDS011;18289;51.330;4.946;2023-02-26T16:02:23;1.40;;;1.30;;
31694;SDS011;18289;51.330;4.946;2023-02-26T16:04:51;1.42;;;1.25;;
31694;SDS011;18289;51.330;4.946;2023-02-26T16:07:17;2.45;;;1.75;;
31694;SDS011;18289;51.330;4.946;2023-02-26T16:09:47;3.35;;;1.50;;
31694;SDS011;18289;51.330;4.946;2023-02-26T16:15:12;3.35;;;1.67;;
31694;SDS011;18289;51.330;4.946;2023-02-26T16:17:41;1.75;;;1.30;;
31694;SDS011;18289;51.330;4.946;2023-02-26T16:20:12;2.08;;;1.40;;
31694;SDS011;18289;51.330;4.946;2023-02-26T16:22:50;2.00;;;1.80;;
31694;SDS011;18289;51.330;4.946;2023-02-26T16:28:18;2.17;;;1.60;;
31694;SDS011;18289;51.330;4.946;2023-02-26T16:30:46;2.78;;;1.90;;
31694;SDS011;18289;51.330;4.946;2023-02-26T16:33:14;3.17;;;1.90;;
31694;SDS011;18289;51.330;4.946;2023-02-26T16:35:42;2.67;;;1.63;;
31694;SDS011;18289;51.330;4.946;2023-02-26T16:38:26;3.30;;;1.70;;
31694;SDS011;18289;51.330;4.946;2023-02-26T16:40:57;2.25;;;1.40;;
31694;SDS011;18289;51.330;4.946;2023-02-26T16:43:49;3.03;;;1.20;;
31694;SDS011;18289;51.330;4.946;2023-02-26T16:46:27;1.80;;;1.40;;
31694;SDS011;18289;51.330;4.946;2023-02-26T16:49:19;1.55;;;1.30;;
31694;SDS011;18289;51.330;4.946;2023-02-26T16:52:00;2.85;;;1.42;;
31694;SDS011;18289;51.330;4.946;2023-02-26T16:54:27;5.28;;;2.40;;
31694;SDS011;18289;51.330;4.946;2023-02-26T16:57:05;3.38;;;1.40;;
31694;SDS011;18289;51.330;4.946;2023-02-26T16:59:41;5.00;;;2.28;;
31694;SDS011;18289;51.330;4.946;2023-02-26T17:04:38;2.15;;;1.58;;
31694;SDS011;18289;51.330;4.946;2023-02-26T17:07:13;2.35;;;1.80;;
31694;SDS011;18289;51.330;4.946;2023-02-26T17:09:57;2.03;;;1.85;;
31694;SDS011;18289;51.330;4.946;2023-02-26T17:12:37;2.20;;;1.52;;
31694;SDS011;18289;51.330;4.946;2023-02-26T17:15:12;1.70;;;1.60;;
31694;SDS011;18289;51.330;4.946;2023-02-26T17:17:45;2.10;;;1.80;;
31694;SDS011;18289;51.330;4.946;2023-02-26T17:20:14;4.60;;;1.65;;
31694;SDS011;18289;51.330;4.946;2023-02-26T17:22:40;2.00;;;1.80;;
31694;SDS011;18289;51.330;4.946;2023-02-26T17:25:12;2.42;;;1.70;;
31694;SDS011;18289;51.330;4.946;2023-02-26T17:27:40;2.95;;;2.13;;
31694;SDS011;18289;51.330;4.946;2023-02-26T17:30:06;2.40;;;1.65;;
31694;SDS011;18289;51.330;4.946;2023-02-26T17:32:33;3.90;;;2.00;;
31694;SDS011;18289;51.330;4.946;2023-02-26T17:35:00;2.65;;;2.20;;
31694;SDS011;18289;51.330;4.946;2023-02-26T17:37:30;3.72;;;2.03;;
31694;SDS011;18289;51.330;4.946;2023-02-26T17:40:03;2.22;;;1.92;;
31694;SDS011;18289;51.330;4.946;2023-02-26T17:42:39;3.22;;;2.17;;
31694;SDS011;18289;51.330;4.946;2023-02-26T17:45:04;3.38;;;2.58;;
31694;SDS011;18289;51.330;4.946;2023-02-26T17:47:30;4.18;;;2.50;;
31694;SDS011;18289;51.330;4.946;2023-02-26T17:49:56;2.20;;;1.67;;
31694;SDS011;18289;51.330;4.946;2023-02-26T17:52:21;2.33;;;2.00;;
31694;SDS011;18289;51.330;4.946;2023-02-26T17:54:47;1.88;;;1.60;;
31694;SDS011;18289;51.330;4.946;2023-02-26T17:57:19;3.20;;;1.70;;
31694;SDS011;18289;51.330;4.946;2023-02-26T17:59:46;2.00;;;1.70;;
31694;SDS011;18289;51.330;4.946;2023-02-26T18:02:15;4.25;;;1.80;;
31694;SDS011;18289;51.330;4.946;2023-02-26T18:04:49;1.88;;;1.45;;
31694;SDS011;18289;51.330;4.946;2023-02-26T18:07:16;2.40;;;1.65;;
31694;SDS011;18289;51.330;4.946;2023-02-26T18:09:46;2.50;;;1.80;;
31694;SDS011;18289;51.330;4.946;2023-02-26T18:12:16;2.58;;;1.70;;
31694;SDS011;18289;51.330;4.946;2023-02-26T18:14:43;1.73;;;1.40;;
31694;SDS011;18289;51.330;4.946;2023-02-26T18:17:13;3.28;;;1.80;;
31694;SDS011;18289;51.330;4.946;2023-02-26T18:19:43;2.85;;;1.60;;
31694;SDS011;18289;51.330;4.946;2023-02-26T18:22:13;4.80;;;1.67;;
31694;SDS011;18289;51.330;4.946;2023-02-26T18:24:40;3.20;;;1.90;;
31694;SDS011;18289;51.330;4.946;2023-02-26T18:27:11;2.20;;;1.70;;
31694;SDS011;18289;51.330;4.946;2023-02-26T18:29:39;2.10;;;1.90;;
31694;SDS011;18289;51.330;4.946;2023-02-26T18:32:04;3.55;;;1.75;;
31694;SDS011;18289;51.330;4.946;2023-02-26T18:34:30;2.20;;;1.90;;
31694;SDS011;18289;51.330;4.946;2023-02-26T18:36:56;2.20;;;1.80;;
31694;SDS011;18289;51.330;4.946;2023-02-26T18:39:21;3.35;;;1.73;;
31694;SDS011;18289;51.330;4.946;2023-02-26T18:44:17;2.35;;;1.60;;